Kingsland, Indiana
Current Conditions -  °F | °C
As of 6:54 AM on Sunday 21 Dec 2014 (Local Time) from KFWA Reporting Station
Overcast Overcast  
Wind Chill: 29°   Ceiling: 5500
Heat Index: 29°   Visibility: 8mi
Dew Point: 26°   Wind: 3mph
Humidity: 89%   Direction: 170°S
Pressure: 30.3"   Gusts: NA
Location:  40.8661°N, 85.1531°W
Report Text: KFWA 211154Z 17003KT 8SM OVC055 M02/M03 A3030 RMK AO2 SLP270 T10171033 11011 21017 53002
Loading
Personal Weather Stations






























Interactive Weather Map New forecast layout! Learn more

10-Day Weather Forecast

Advertisements
Track Severe Weather on mobile